Terminal Aerodrome Forecast
Issued by NWS

Home | Current Version | Previous Version | Graphics & Text | Print | Product List | Glossary On
Versions: 1 2 3 4 5 6 7 8 9 10 11 12 13 14 15 16 17 18 19 20 21 22 23 24 25 26 27 28 29 30 31 32 33 34 35 36 37 38 39 40 41 42 43 44 45 46
559
FTUS43 KGLD 140520
TAFMCK
TAF
KMCK 140520Z 1406/1506 28010KT P6SM SCT150
     FM141200 29012KT P6SM BKN150 WS020/34035KT
     FM141800 29012KT P6SM SCT250
     FM150000 26004KT P6SM BKN060
     FM150300 27007KT P6SM SCT110=

USA.gov is the U.S. government's official web portal to all federal, state and local government web resources and services.